Francis Creek, Wisconsin
Current Conditions -  °F | °C
As of 6:56 PM on Monday 26 Jan 2015 (Local Time) from KMTW Reporting Station
Light Snow Light Snow  
Wind Chill: 18°   Ceiling: 1700
Heat Index: 28°   Visibility: 9mi
Dew Point: 23°   Wind: 12mph
Humidity: 81%   Direction: 150°SSE
Pressure: 29.9"   Gusts: NA
Location:  44.2°N, 87.72°W
Report Text: KMTW 270056Z AUTO 15010KT 9SM -SN OVC017 M02/M05 A2990 RMK AO2 UPB10E12SNB00E10B42 SLP152 P0000 T10221050 FZRANO
Loading
Personal Weather Stations






























Interactive Weather Map New forecast layout! Learn more

10-Day Weather Forecast

Advertisements
Track Severe Weather on mobile